createdAt,value
2023-01-19T00:00:58.145Z,93676.28
2023-01-19T00:03:25.997Z,93680.63
2023-01-19T00:05:54.541Z,93688.00
2023-01-19T00:08:22.457Z,93692.94
2023-01-19T00:10:52.123Z,93693.13
2023-01-19T00:13:20.656Z,93695.41
2023-01-19T00:15:50.041Z,93697.06
2023-01-19T00:18:18.411Z,93698.25
2023-01-19T00:20:46.420Z,93705.66
2023-01-19T00:23:15.061Z,93709.34
2023-01-19T00:25:43.861Z,93714.28
2023-01-19T00:28:13.113Z,93715.75
2023-01-19T00:30:41.469Z,93708.13
2023-01-19T00:33:11.497Z,93710.81
2023-01-19T00:35:40.348Z,93712.25
2023-01-19T00:38:08.241Z,93713.28
2023-01-19T00:40:36.131Z,93715.34
2023-01-19T00:43:04.203Z,93725.81
2023-01-19T00:45:32.415Z,93716.56
2023-01-19T00:48:00.254Z,93724.97
2023-01-19T00:50:31.160Z,93729.09
2023-01-19T00:53:01.494Z,93717.59
2023-01-19T00:55:29.942Z,93722.94
2023-01-19T00:57:58.166Z,93727.25
2023-01-19T01:00:26.642Z,93729.72
2023-01-19T01:02:55.827Z,93734.44
2023-01-19T01:05:23.799Z,93727.66
2023-01-19T01:07:53.087Z,93739.38
2023-01-19T01:10:22.669Z,93741.41
2023-01-19T01:12:55.968Z,93745.53
2023-01-19T01:15:27.824Z,93748.59
2023-01-19T01:17:55.921Z,93746.75
2023-01-19T01:20:25.503Z,93748.41
2023-01-19T01:22:55.424Z,93740.78
2023-01-19T01:25:25.006Z,93751.47
2023-01-19T01:27:53.136Z,93751.69
2023-01-19T01:30:21.761Z,93757.41
2023-01-19T01:32:49.801Z,93761.75
2023-01-19T01:35:18.152Z,93766.88
2023-01-19T01:37:46.058Z,93765.22
2023-01-19T01:40:17.862Z,93768.53
2023-01-19T01:42:45.804Z,93769.78
2023-01-19T01:45:30.619Z,93773.03
2023-01-19T01:48:01.599Z,93767.28
2023-01-19T01:50:31.632Z,93766.50
2023-01-19T01:53:07.090Z,93775.09
2023-01-19T01:55:40.416Z,93775.09
2023-01-19T01:58:09.832Z,93782.91
2023-01-19T02:00:52.262Z,93782.72
2023-01-19T02:03:20.282Z,93782.09
2023-01-19T02:05:48.474Z,93788.06
2023-01-19T02:08:37.269Z,93778.78
2023-01-19T02:11:25.089Z,93779.22
2023-01-19T02:13:53.135Z,93779.59
2023-01-19T02:16:21.065Z,93789.44
2023-01-19T02:18:49.504Z,93788.63
2023-01-19T02:21:20.853Z,93789.88
2023-01-19T02:23:52.551Z,93790.50
2023-01-19T02:26:22.587Z,93789.88
2023-01-19T02:28:53.571Z,93794.38
2023-01-19T02:31:21.435Z,93796.03
2023-01-19T02:33:49.227Z,93793.78
2023-01-19T02:36:18.238Z,93787.41
2023-01-19T02:38:47.552Z,93787.41
2023-01-19T02:41:20.801Z,93799.72
2023-01-19T02:43:49.791Z,93797.03
2023-01-19T02:46:17.957Z,93798.91
2023-01-19T02:48:45.748Z,93800.75
2023-01-19T02:51:17.061Z,93801.38
2023-01-19T02:54:04.733Z,93809.19
2023-01-19T02:56:47.271Z,93806.69
2023-01-19T02:59:24.518Z,93796.41
2023-01-19T03:02:09.065Z,93793.75
2023-01-19T03:04:46.130Z,93796.41
2023-01-19T03:07:16.084Z,93798.06
2023-01-19T03:09:51.127Z,93792.34
2023-01-19T03:12:27.567Z,93794.59
2023-01-19T03:14:59.744Z,93793.56
2023-01-19T03:17:29.684Z,93791.09
2023-01-19T03:19:59.066Z,93799.91
2023-01-19T03:22:29.099Z,93795.81
2023-01-19T03:25:01.497Z,93800.94
2023-01-19T03:27:32.613Z,93798.28
2023-01-19T03:30:02.791Z,93787.81
2023-01-19T03:32:35.708Z,93800.09
2023-01-19T03:35:05.647Z,93802.78
2023-01-19T03:37:35.603Z,93803.81
2023-01-19T03:40:03.441Z,93811.22
2023-01-19T03:42:33.244Z,93803.59
2023-01-19T03:45:01.735Z,93802.56
2023-01-19T03:47:29.991Z,93806.28
2023-01-19T03:49:58.472Z,93801.75
2023-01-19T03:52:30.381Z,93803.00
2023-01-19T03:54:58.482Z,93809.56
2023-01-19T03:57:26.692Z,93818.38
2023-01-19T03:59:55.995Z,93813.88
2023-01-19T04:02:24.155Z,93811.81
2023-01-19T04:04:52.348Z,93813.66
2023-01-19T04:07:20.221Z,93821.03
2023-01-19T04:09:48.487Z,93818.56
2023-01-19T04:12:16.466Z,93808.31
2023-01-19T04:14:44.241Z,93809.13
2023-01-19T04:17:14.244Z,93809.53
2023-01-19T04:19:42.427Z,93810.13
2023-01-19T04:22:10.555Z,93806.44
2023-01-19T04:24:38.340Z,93805.38
2023-01-19T04:27:06.258Z,93809.69
2023-01-19T04:29:34.065Z,93812.34
2023-01-19T04:32:01.898Z,93811.94
2023-01-19T04:34:31.172Z,93811.75
2023-01-19T04:36:59.100Z,93810.47
2023-01-19T04:39:27.666Z,93811.28
2023-01-19T04:41:57.488Z,93809.03
2023-01-19T04:44:25.386Z,93803.06
2023-01-19T04:46:53.307Z,93808.19
2023-01-19T04:49:21.163Z,93804.84
2023-01-19T04:51:50.847Z,93806.91
2023-01-19T04:54:18.901Z,93820.22
2023-01-19T04:56:46.825Z,93824.94
2023-01-19T04:59:14.684Z,93822.84
2023-01-19T05:01:42.895Z,93822.22
2023-01-19T05:04:11.030Z,93827.72
2023-01-19T05:06:39.053Z,93827.50
2023-01-19T05:09:09.171Z,93823.97
2023-01-19T05:11:36.977Z,93831.97
2023-01-19T05:14:04.827Z,93835.00
2023-01-19T05:16:33.033Z,93837.81
2023-01-19T05:19:00.974Z,93838.41
2023-01-19T05:21:29.367Z,93844.13
2023-01-19T05:23:57.103Z,93843.50
2023-01-19T05:26:54.774Z,93850.03
2023-01-19T05:29:22.718Z,93836.50
2023-01-19T05:43:14.904Z,93850.06
2023-01-19T05:45:43.514Z,93848.50
2023-01-19T05:48:11.468Z,93853.63
2023-01-19T05:50:39.463Z,93859.53
2023-01-19T05:53:07.648Z,93863.16
2023-01-19T05:55:36.593Z,93867.03
2023-01-19T05:58:04.697Z,93861.47
2023-01-19T06:00:34.033Z,93861.84
2023-01-19T06:03:03.128Z,93863.44
2023-01-19T06:05:31.410Z,93861.19
2023-01-19T06:07:59.525Z,93873.59
2023-01-19T06:10:27.452Z,93881.78
2023-01-19T06:12:55.887Z,93883.38
2023-01-19T06:15:23.960Z,93880.53
2023-01-19T06:17:55.204Z,93884.38
2023-01-19T06:20:23.048Z,93887.22
2023-01-19T06:22:50.989Z,93893.28
2023-01-19T06:25:18.862Z,93898.78
2023-01-19T06:27:46.764Z,93895.03
2023-01-19T06:30:15.516Z,93895.88
2023-01-19T06:32:43.369Z,93896.06
2023-01-19T06:35:12.769Z,93896.25
2023-01-19T06:37:41.178Z,93893.56
2023-01-19T06:40:10.402Z,93906.88
2023-01-19T06:42:38.338Z,93907.88
2023-01-19T06:45:07.148Z,93915.06
2023-01-19T06:47:35.013Z,93915.63
2023-01-19T06:50:03.555Z,93911.50
2023-01-19T06:52:33.197Z,93917.47
2023-01-19T06:55:01.357Z,93921.72
2023-01-19T06:57:29.457Z,93923.91
2023-01-19T07:00:00.871Z,93922.63
2023-01-19T07:02:29.142Z,93925.84
2023-01-19T07:04:57.283Z,93936.50
2023-01-19T07:07:25.427Z,93933.47
2023-01-19T07:09:55.259Z,93936.75
2023-01-19T07:12:24.039Z,93939.25
2023-01-19T07:14:52.859Z,93937.38
2023-01-19T07:17:20.900Z,93942.94
2023-01-19T07:23:36.123Z,93948.25
2023-01-19T07:26:06.144Z,93950.34
2023-01-19T07:28:34.540Z,93952.63
2023-01-19T07:31:02.521Z,93954.28
2023-01-19T07:33:30.661Z,93951.00
2023-01-19T07:35:58.690Z,93950.34
2023-01-19T07:38:26.826Z,93964.09
2023-01-19T07:41:02.079Z,93959.59
2023-01-19T07:43:32.078Z,93970.88
2023-01-19T07:46:00.723Z,93974.81
2023-01-19T07:48:29.344Z,93976.47
2023-01-19T07:51:02.458Z,93971.59
2023-01-19T07:53:30.710Z,93963.44
2023-01-19T07:55:58.670Z,93964.72
2023-01-19T07:58:27.177Z,93971.31
2023-01-19T08:00:56.493Z,93971.94
2023-01-19T08:03:24.860Z,93975.88
2023-01-19T08:05:53.657Z,93967.97
2023-01-19T08:08:22.063Z,93972.34
2023-01-19T08:10:52.149Z,93969.84
2023-01-19T08:13:20.171Z,93986.31
2023-01-19T08:15:51.686Z,93979.94
2023-01-19T08:18:21.483Z,93984.91
2023-01-19T08:20:49.514Z,93979.84
2023-01-19T08:23:18.345Z,93979.47
2023-01-19T08:25:46.441Z,93987.47
2023-01-19T08:28:15.881Z,93983.78
2023-01-19T08:30:45.147Z,93989.56
2023-01-19T08:33:13.977Z,93998.63
2023-01-19T08:35:45.666Z,94004.56
2023-01-19T08:38:13.816Z,94009.16
2023-01-19T08:40:42.929Z,94006.75
2023-01-19T08:43:12.889Z,93999.56
2023-01-19T08:45:49.241Z,94001.03
2023-01-19T08:48:18.469Z,93999.19
2023-01-19T08:50:48.997Z,94007.63
2023-01-19T08:53:18.094Z,94002.50
2023-01-19T08:55:46.784Z,94004.78
2023-01-19T08:58:14.910Z,94013.81
2023-01-19T09:00:43.213Z,94006.25
2023-01-19T09:03:13.532Z,94011.38
2023-01-19T09:05:42.026Z,94018.34
2023-01-19T09:08:14.212Z,94013.31
2023-01-19T09:10:46.473Z,94021.06
2023-01-19T09:13:14.847Z,94015.38
2023-01-19T09:15:43.707Z,94017.03
2023-01-19T09:18:13.878Z,94012.69
2023-01-19T09:21:13.973Z,94018.94
2023-01-19T09:23:43.877Z,94014.28
2023-01-19T09:26:12.094Z,94016.38
2023-01-19T09:28:40.157Z,94012.53
2023-01-19T09:31:08.997Z,94009.72
2023-01-19T09:33:37.315Z,94013.50
2023-01-19T09:36:05.485Z,94006.78
2023-01-19T09:38:34.099Z,94017.28
2023-01-19T09:41:04.653Z,94012.19
2023-01-19T09:43:39.143Z,94010.16
2023-01-19T09:46:12.899Z,94017.78
2023-01-19T09:48:45.933Z,94021.91
2023-01-19T09:51:17.365Z,94013.94
2023-01-19T09:53:57.150Z,94012.13
2023-01-19T09:56:29.602Z,94008.38
2023-01-19T09:58:58.327Z,94021.38
2023-01-19T10:01:40.535Z,94015.25
2023-01-19T10:04:30.799Z,94014.84
2023-01-19T10:07:06.901Z,94015.09
2023-01-19T10:09:40.987Z,94015.72
2023-01-19T10:12:17.920Z,94021.47
2023-01-19T10:14:51.291Z,94021.50
2023-01-19T10:17:25.599Z,94018.03
2023-01-19T10:19:57.876Z,94011.91
2023-01-19T10:22:27.234Z,94016.03
2023-01-19T10:24:57.402Z,94018.91
2023-01-19T10:27:30.099Z,94014.63
2023-01-19T10:29:58.772Z,94012.34
2023-01-19T10:32:30.811Z,94010.69
2023-01-19T10:34:59.616Z,94008.63
2023-01-19T10:37:31.973Z,94016.88
2023-01-19T10:40:03.771Z,94007.22
2023-01-19T10:42:33.547Z,94005.78
2023-01-19T10:45:01.540Z,94002.91
2023-01-19T10:47:33.493Z,94006.28
2023-01-19T10:50:01.992Z,94009.59
2023-01-19T10:52:32.816Z,93998.91
2023-01-19T10:55:02.561Z,94002.22
2023-01-19T10:57:34.555Z,93996.88
2023-01-19T11:00:02.280Z,94006.75
2023-01-19T11:02:31.518Z,94001.41
2023-01-19T11:05:01.444Z,94007.78
2023-01-19T11:07:31.323Z,94004.91
2023-01-19T11:10:22.703Z,94007.16
2023-01-19T11:13:08.100Z,93995.63
2023-01-19T11:15:42.736Z,93999.53
2023-01-19T11:18:24.245Z,94000.34
2023-01-19T11:20:54.894Z,93993.78
2023-01-19T11:23:28.322Z,93997.88
2023-01-19T11:26:00.858Z,93998.06
2023-01-19T11:28:44.933Z,93990.22
2023-01-19T11:31:21.974Z,93986.13
2023-01-19T11:33:51.874Z,93994.34
2023-01-19T11:36:22.065Z,93993.91
2023-01-19T11:38:51.938Z,93984.75
2023-01-19T11:41:23.323Z,93974.66
2023-01-19T11:44:10.244Z,93977.75
2023-01-19T11:47:29.274Z,93978.94
2023-01-19T11:50:44.763Z,93970.22
2023-01-19T12:01:08.230Z,93965.88
2023-01-19T12:03:42.962Z,93960.00
2023-01-19T12:06:13.715Z,93962.75
2023-01-19T12:09:00.579Z,93950.69
2023-01-19T12:12:03.101Z,93952.47
2023-01-19T12:15:07.289Z,93945.09
2023-01-19T12:21:48.518Z,93952.81
2023-01-19T12:25:40.288Z,93945.56
2023-01-19T12:28:14.267Z,93952.66
2023-01-19T12:30:43.590Z,93950.88
2023-01-19T12:33:35.878Z,93944.81
2023-01-19T12:36:07.218Z,93944.13
2023-01-19T12:38:56.965Z,93941.72
2023-01-19T12:41:32.199Z,93941.63
2023-01-19T12:44:19.329Z,93943.34
2023-01-19T12:46:49.615Z,93943.50
2023-01-19T12:49:26.896Z,93943.28
2023-01-19T12:51:57.424Z,93935.44
2023-01-19T12:54:31.754Z,93942.94
2023-01-19T12:57:01.769Z,93942.00
2023-01-19T12:59:30.221Z,93951.78
2023-01-19T13:02:35.131Z,93949.91
2023-01-19T13:05:19.911Z,93941.91
2023-01-19T13:08:19.713Z,93944.00
2023-01-19T13:11:18.149Z,93957.31
2023-01-19T13:13:48.673Z,93948.75
2023-01-19T13:16:57.620Z,93944.78
2023-01-19T13:19:36.548Z,93950.31
2023-01-19T13:22:53.282Z,93938.34
2023-01-19T13:25:31.484Z,93940.25
2023-01-19T13:28:01.333Z,93947.13
2023-01-19T13:30:30.436Z,93940.91
2023-01-19T13:33:11.604Z,93951.69
2023-01-19T13:35:39.701Z,93953.34
2023-01-19T13:38:08.693Z,93948.50
2023-01-19T13:40:39.503Z,93952.22
2023-01-19T13:43:16.936Z,93954.34
2023-01-19T13:45:51.693Z,93957.09
2023-01-19T13:48:24.225Z,93955.88
2023-01-19T13:51:06.767Z,93963.16
2023-01-19T13:53:35.552Z,93959.09
2023-01-19T13:56:18.072Z,93955.03
2023-01-19T14:03:20.443Z,93958.47
2023-01-19T14:05:51.481Z,93960.91
2023-01-19T14:08:26.725Z,93964.28
2023-01-19T14:11:04.341Z,93966.19
2023-01-19T14:20:30.679Z,93966.72
2023-01-19T14:22:58.841Z,93977.00
2023-01-19T14:25:30.952Z,93977.22
2023-01-19T14:28:17.706Z,93979.03
2023-01-19T14:30:55.331Z,93976.00
2023-01-19T14:33:43.774Z,93973.31
2023-01-19T14:36:27.946Z,93975.78
2023-01-19T14:38:57.650Z,93977.03
2023-01-19T14:41:28.075Z,93970.00
2023-01-19T14:43:57.098Z,93978.44
2023-01-19T14:46:26.059Z,93977.84
2023-01-19T14:49:01.975Z,93981.34
2023-01-19T14:51:30.684Z,93976.59
2023-01-19T14:54:00.806Z,93984.81
2023-01-19T14:56:30.408Z,93980.31
2023-01-19T14:58:59.875Z,93985.91
2023-01-19T15:01:31.252Z,93988.59
2023-01-19T15:04:00.981Z,93994.97
2023-01-19T15:06:29.264Z,93985.91
2023-01-19T15:08:57.204Z,93992.28
2023-01-19T15:11:27.654Z,93997.22
2023-01-19T15:13:55.628Z,93992.66
2023-01-19T15:16:24.302Z,94002.38
2023-01-19T15:18:52.261Z,93997.03
2023-01-19T15:21:23.779Z,93997.84
2023-01-19T15:23:51.775Z,93997.66
2023-01-19T15:26:22.174Z,94003.84
2023-01-19T15:28:50.806Z,94004.09
2023-01-19T15:31:20.547Z,94007.56
2023-01-19T15:33:48.761Z,94002.44
2023-01-19T15:36:18.395Z,94004.28
2023-01-19T15:38:50.345Z,94000.56
2023-01-19T15:41:23.586Z,94005.09
2023-01-19T15:43:52.085Z,94007.97
2023-01-19T15:46:20.885Z,94004.50
2023-01-19T15:48:49.432Z,94010.47
2023-01-19T15:51:19.218Z,94005.91
2023-01-19T15:53:48.962Z,94008.38
2023-01-19T15:56:17.541Z,94008.38
2023-01-19T15:58:47.092Z,94009.25
2023-01-19T16:01:16.152Z,94008.81
2023-01-19T16:03:44.552Z,94007.78
2023-01-19T16:06:12.863Z,94012.31
2023-01-19T16:08:41.834Z,94006.97
2023-01-19T16:11:12.465Z,94014.59
2023-01-19T16:13:40.558Z,94009.00
2023-01-19T16:16:10.160Z,94010.47
2023-01-19T16:18:38.004Z,94019.50
2023-01-19T16:21:06.590Z,94018.28
2023-01-19T16:23:34.459Z,94012.94
2023-01-19T16:26:05.116Z,94007.97
2023-01-19T16:28:35.073Z,94007.56
2023-01-19T16:31:03.153Z,94021.78
2023-01-19T16:33:31.162Z,94016.00
2023-01-19T16:35:58.929Z,94018.06
2023-01-19T16:38:27.064Z,94016.22
2023-01-19T16:40:54.856Z,94021.16
2023-01-19T16:43:22.852Z,94009.63
2023-01-19T16:45:59.786Z,94017.47
2023-01-19T16:48:28.525Z,94014.56
2023-01-19T16:51:01.431Z,94010.63
2023-01-19T16:53:30.156Z,94012.50
2023-01-19T16:55:58.713Z,94010.84
2023-01-19T16:58:26.943Z,94009.63
2023-01-19T17:00:55.860Z,94010.03
2023-01-19T17:03:27.145Z,94011.03
2023-01-19T17:05:55.251Z,94006.94
2023-01-19T17:08:23.308Z,94009.22
2023-01-19T17:10:51.162Z,94006.94
2023-01-19T17:13:19.358Z,94015.59
2023-01-19T17:15:47.368Z,94017.44
2023-01-19T17:18:15.282Z,94018.88
2023-01-19T17:20:45.099Z,94012.09
2023-01-19T17:23:13.025Z,94019.50
2023-01-19T17:25:40.909Z,94019.72
2023-01-19T17:28:09.695Z,94018.69
2023-01-19T17:30:38.020Z,94015.19
2023-01-19T17:41:20.575Z,94019.94
2023-01-19T17:44:28.132Z,94021.56
2023-01-19T21:06:09.221Z,94009.38
2023-01-19T21:08:37.234Z,94009.13
2023-01-19T21:11:05.493Z,94005.19
2023-01-19T21:13:33.304Z,94009.91
2023-01-19T21:16:00.964Z,94011.56
2023-01-19T21:18:28.627Z,94010.97
2023-01-19T21:20:57.445Z,94013.63
2023-01-19T21:23:26.856Z,94012.19
2023-01-19T21:25:56.082Z,94019.19
2023-01-19T21:28:24.233Z,94012.78
2023-01-19T21:30:52.554Z,94011.72
2023-01-19T21:33:20.701Z,94006.53
2023-01-19T21:35:51.948Z,94012.69
2023-01-19T21:38:19.597Z,94011.06
2023-01-19T21:40:48.652Z,94009.19
2023-01-19T21:43:16.208Z,94012.25
2023-01-19T21:45:44.703Z,94010.59
2023-01-19T21:48:12.285Z,94013.06
2023-01-19T21:50:39.964Z,94009.78
2023-01-19T21:53:11.066Z,94015.50
2023-01-19T21:55:38.870Z,94027.78
2023-01-19T21:58:07.802Z,94024.53
2023-01-19T22:00:35.358Z,94031.13
2023-01-19T22:03:04.522Z,94034.41
2023-01-19T22:05:36.837Z,94039.50
2023-01-19T22:08:05.151Z,94043.41
2023-01-19T22:10:32.822Z,94047.31
2023-01-19T22:13:00.445Z,94047.13
2023-01-19T22:15:30.518Z,94052.84
2023-01-19T22:17:58.139Z,94053.03
2023-01-19T22:20:25.723Z,94065.00
2023-01-19T22:22:53.308Z,94056.16
2023-01-19T22:25:23.831Z,94057.38
2023-01-19T22:27:51.430Z,94051.16
2023-01-19T22:30:19.657Z,94056.78
2023-01-19T22:32:48.668Z,94053.41
2023-01-19T22:35:16.415Z,94054.91
2023-01-19T22:37:43.994Z,94060.94
2023-01-19T22:40:12.888Z,94058.75
2023-01-19T22:42:40.490Z,94061.34
2023-01-19T22:45:09.428Z,94066.56
2023-01-19T22:47:37.000Z,94070.47
2023-01-19T22:50:06.993Z,94063.34
2023-01-19T22:52:34.559Z,94068.94
2023-01-19T22:55:02.183Z,94066.09
2023-01-19T22:57:34.264Z,94059.19
2023-01-19T23:00:01.918Z,94066.59
2023-01-19T23:02:29.476Z,94061.72
2023-01-19T23:04:57.092Z,94058.03
2023-01-19T23:07:26.045Z,94058.81
2023-01-19T23:09:53.634Z,94058.81
2023-01-19T23:12:21.217Z,94052.19
2023-01-19T23:14:48.781Z,94055.50
2023-01-19T23:17:16.379Z,94055.88
2023-01-19T23:19:43.945Z,94057.53
2023-01-19T23:22:11.612Z,94055.50
2023-01-19T23:24:40.795Z,94057.16
2023-01-19T23:27:08.376Z,94061.66
2023-01-19T23:29:36.287Z,94049.78
2023-01-19T23:32:04.009Z,94051.44
2023-01-19T23:34:31.830Z,94050.41
2023-01-19T23:36:59.440Z,94053.91
2023-01-19T23:39:27.023Z,94054.09
2023-01-19T23:41:55.957Z,94057.53
2023-01-19T23:44:23.581Z,94059.56
2023-01-19T23:46:51.351Z,94070.03
2023-01-19T23:49:18.909Z,94060.00
2023-01-19T23:51:46.491Z,94063.88
2023-01-19T23:54:14.115Z,94057.53
2023-01-19T23:56:42.573Z,94057.97
2023-01-19T23:59:12.840Z,94063.94
